Pointe Aux Barques, Michigan
Current Conditions -  °F | °C
As of 6:56 PM on Saturday 22 Nov 2014 (Local Time) from KBAX Reporting Station
Haze Haze  
Wind Chill: 35°   Ceiling: 300
Heat Index: 40°   Visibility: 1.2mi
Dew Point: 40°   Wind: 8mph
Humidity: 100%   Direction: 210°SSW
Pressure: 29.88"   Gusts: NA
Location:  44.0077°N, 82.9857°W
Report Text: KBAX 222356Z AUTO 21007KT 1 1/4SM BR OVC003 05/05 A2988 RMK AO2 T00470047 10048 20030
Loading
Personal Weather Stations






























Interactive Weather Map New forecast layout! Learn more

10-Day Weather Forecast

Advertisements
Track Severe Weather on mobile